Time;durP1;ratioP1;P1;durP2;ratioP2;P2;SDS_P1;SDS_P2;PMS_P1;PMS_P2;Temp;Humidity;BMP_temperature;BMP_pressure;BME280_temperature;BME280_humidity;BME280_pressure;Samples;Min_cycle;Max_cycle;Signal;HPM_P1;HPM_P2
2022/08/01 13:51:34;;;;;;;;;;;;;;;19.14;63.71;100076.00;4986228;23;1745;-95
2022/08/01 13:54:01;;;;;;;;;;;;;;;19.15;63.90;100072.16;4906058;29;957;-95
2022/08/01 14:36:59;;;;;;;;;;;;;;;19.39;64.20;100096.78;4905481;29;1965;-94
2022/08/01 14:45:26;;;;;;;;;;;;;;;19.32;63.88;100079.91;5436569;23;2900;-95
2022/08/01 14:56:02;;;;;;;;;;;;;;;19.49;64.20;100091.19;4895047;23;1989;-94
2022/08/01 15:06:35;;;;;;;;;;;;;;;19.55;64.35;100089.22;4896459;29;1520;-95
2022/08/01 15:09:01;;;;;;;;;;;;;;;19.57;64.43;100093.28;4886758;29;1475;-94
2022/08/01 15:11:28;;;;;;;;;;;;;;;19.60;64.40;100089.97;4877612;29;1516;-94
2022/08/01 15:16:35;;;;;;;;;;;;;;;19.63;64.09;100088.56;4895550;29;1887;-93
2022/08/01 15:19:02;;;;;;;;;;;;;;;19.64;64.17;100091.00;4892736;29;1726;-94
2022/08/01 15:21:28;;;;;;;;;;;;;;;19.66;64.19;100090.75;4893451;29;1885;-94
2022/08/01 15:23:54;;;;;;;;;;;;;;;19.67;64.52;100101.38;4889050;29;1603;-93
2022/08/01 15:26:21;;;;;;;;;;;;;;;19.69;64.46;100098.38;4889772;29;2217;-95
2022/08/01 15:28:47;;;;;;;;;;;;;;;19.70;64.10;100094.53;4886103;29;1503;-94
2022/08/01 15:31:14;;;;;;;;;;;;;;;19.71;64.48;100098.91;4886533;29;1798;-94
2022/08/01 15:33:40;;;;;;;;;;;;;;;19.74;64.26;100093.66;4890083;29;1208;-95
2022/08/01 15:36:07;;;;;;;;;;;;;;;19.75;64.49;100105.41;4880345;29;1980;-94
2022/08/01 15:38:33;;;;;;;;;;;;;;;19.77;64.28;100107.84;4882243;29;1211;-94
2022/08/01 15:41:00;;;;;;;;;;;;;;;19.78;64.32;100104.00;4888742;29;2259;-93
2022/08/01 15:43:26;;;;;;;;;;;;;;;19.79;64.36;100106.44;4888742;29;1195;-94
2022/08/01 15:45:53;;;;;;;;;;;;;;;19.81;64.59;100106.16;4886194;29;1638;-92
2022/08/01 15:48:19;;;;;;;;;;;;;;;19.82;64.42;100107.75;4876960;29;1739;-92
2022/08/01 15:50:45;;;;;;;;;;;;;;;19.83;64.62;100107.50;4885657;29;1504;-93
2022/08/01 15:53:12;;;;;;;;;;;;;;;19.85;64.35;100109.91;4889273;29;1445;-93
2022/08/01 15:55:38;;;;;;;;;;;;;;;19.86;64.36;100112.38;4884031;29;1911;-92
2022/08/01 15:58:05;;;;;;;;;;;;;;;19.88;64.63;100109.34;4883591;29;1616;-94
2022/08/01 16:00:31;;;;;;;;;;;;;;;19.89;64.34;100108.25;4884819;29;1258;-94
2022/08/01 16:02:58;;;;;;;;;;;;;;;19.91;64.51;100116.94;4880910;29;1788;-94
2022/08/01 16:05:24;;;;;;;;;;;;;;;19.93;64.43;100112.81;4865665;29;1575;-94
2022/08/01 16:07:51;;;;;;;;;;;;;;;19.95;64.39;100109.81;4866562;29;1509;-93
2022/08/01 16:10:17;;;;;;;;;;;;;;;19.96;64.46;100112.22;4873629;29;1490;-94
2022/08/01 16:12:43;;;;;;;;;;;;;;;19.98;64.35;100111.13;4865760;29;1778;-93
2022/08/01 16:15:10;;;;;;;;;;;;;;;19.98;64.68;100117.41;4872331;29;1984;-93
2022/08/01 16:17:36;;;;;;;;;;;;;;;20.01;64.69;100118.75;4864282;29;1753;-93
2022/08/01 16:20:03;;;;;;;;;;;;;;;20.02;64.68;100115.72;4875559;29;1638;-93
2022/08/01 16:22:29;;;;;;;;;;;;;;;20.04;64.77;100116.25;4865949;29;1310;-93
2022/08/01 16:24:55;;;;;;;;;;;;;;;20.04;64.48;100113.50;4870328;29;1663;-93
2022/08/01 16:27:22;;;;;;;;;;;;;;;20.05;64.86;100115.13;4869649;29;1264;-95
2022/08/01 16:29:48;;;;;;;;;;;;;;;20.07;64.51;100115.66;4867000;29;1229;-93
2022/08/01 16:32:15;;;;;;;;;;;;;;;20.09;64.46;100129.00;4861027;29;2888;-94
2022/08/01 16:34:41;;;;;;;;;;;;;;;20.10;64.54;100127.94;4870684;29;1365;-94
2022/08/01 16:37:08;;;;;;;;;;;;;;;20.12;64.78;100125.72;4869608;29;1903;-94
2022/08/01 16:39:34;;;;;;;;;;;;;;;20.12;64.49;100123.78;4862963;29;1483;-93
2022/08/01 16:42:01;;;;;;;;;;;;;;;20.14;64.81;100118.81;4868525;29;1159;-93
2022/08/01 16:44:27;;;;;;;;;;;;;;;20.14;64.87;100124.28;4862955;29;1338;-94
2022/08/01 16:46:53;;;;;;;;;;;;;;;20.16;64.58;100130.28;4872577;29;4822;-93
2022/08/01 16:49:20;;;;;;;;;;;;;;;20.17;64.61;100123.69;4871631;29;1674;-93
2022/08/01 16:51:46;;;;;;;;;;;;;;;20.18;64.83;100122.63;4886706;29;1268;-94
2022/08/01 16:54:13;;;;;;;;;;;;;;;20.19;64.88;100118.75;4867484;29;1598;-92
2022/08/01 16:56:39;;;;;;;;;;;;;;;20.22;65.02;100136.50;4868245;29;1907;-94
2022/08/01 16:59:06;;;;;;;;;;;;;;;20.22;64.95;100125.56;4864809;29;1141;-94
2022/08/01 17:01:33;;;;;;;;;;;;;;;20.24;65.08;100130.75;4867309;29;1338;-92
2022/08/01 17:04:01;;;;;;;;;;;;;;;20.25;65.07;100127.72;4866738;29;1661;-93
2022/08/01 17:06:27;;;;;;;;;;;;;;;20.27;65.05;100124.69;4863919;29;1774;-94
2022/08/01 17:08:53;;;;;;;;;;;;;;;20.28;64.81;100126.31;4866842;29;1173;-93
2022/08/01 17:11:20;;;;;;;;;;;;;;;20.28;64.93;100134.53;4865437;29;1511;-92
2022/08/01 17:13:46;;;;;;;;;;;;;;;20.29;64.88;100134.22;4867339;29;1618;-92
2022/08/01 17:16:13;;;;;;;;;;;;;;;20.30;64.79;100135.03;4865932;29;1915;-93
2022/08/01 17:18:39;;;;;;;;;;;;;;;20.32;64.79;100141.00;4866157;29;1174;-93
2022/08/01 17:21:05;;;;;;;;;;;;;;;20.32;64.85;100139.09;4858424;29;1464;-92
2022/08/01 17:23:32;;;;;;;;;;;;;;;20.33;65.17;100140.72;4859128;29;2079;-94
2022/08/01 17:25:58;;;;;;;;;;;;;;;20.36;65.12;100144.81;4863172;29;1473;-93
2022/08/01 17:28:25;;;;;;;;;;;;;;;20.35;64.91;100144.00;4858135;29;1413;-92
2022/08/01 17:30:51;;;;;;;;;;;;;;;20.38;64.92;100139.84;4860885;29;1480;-93
2022/08/01 17:33:18;;;;;;;;;;;;;;;20.38;65.22;100142.56;4855771;29;1242;-94
2022/08/01 17:35:44;;;;;;;;;;;;;;;20.39;65.22;100150.50;4861494;29;1915;-92
2022/08/01 17:38:11;;;;;;;;;;;;;;;20.40;64.98;100143.09;4862870;29;1487;-92
2022/08/01 17:40:37;;;;;;;;;;;;;;;20.41;65.01;100144.72;4862035;29;1334;-92
2022/08/01 17:43:03;;;;;;;;;;;;;;;20.42;65.20;100146.34;4844503;29;1288;-91
2022/08/01 17:45:30;;;;;;;;;;;;;;;20.42;65.25;100147.16;4853358;29;3048;-94
2022/08/01 17:47:56;;;;;;;;;;;;;;;20.43;65.36;100145.25;4859594;29;1757;-93
2022/08/01 17:50:22;;;;;;;;;;;;;;;20.43;64.97;100154.25;4862736;29;2189;-93
2022/08/01 17:52:49;;;;;;;;;;;;;;;20.45;65.03;100148.50;4854790;29;1691;-94
2022/08/01 17:55:15;;;;;;;;;;;;;;;20.46;65.19;100154.78;4874150;29;1275;-94
2022/08/01 17:57:42;;;;;;;;;;;;;;;20.47;65.30;100150.94;4864605;29;2041;-95
2022/08/01 18:00:08;;;;;;;;;;;;;;;20.47;65.29;100157.22;4865035;29;1359;-94
2022/08/01 18:02:35;;;;;;;;;;;;;;;20.47;65.06;100157.22;4870974;29;1614;-92
2022/08/01 18:05:03;;;;;;;;;;;;;;;20.49;65.29;100162.41;4882440;29;1799;-92
2022/08/01 18:07:29;;;;;;;;;;;;;;;20.50;65.25;100164.84;4874726;29;1649;-94
2022/08/01 18:09:56;;;;;;;;;;;;;;;20.50;65.39;100167.59;4873056;29;1267;-94
2022/08/01 18:12:22;;;;;;;;;;;;;;;20.51;65.32;100166.47;4896587;29;1575;-92
2022/08/01 18:14:49;;;;;;;;;;;;;;;20.51;64.99;100168.41;4896941;29;1795;-93
2022/08/01 18:17:15;;;;;;;;;;;;;;;20.52;65.26;100178.22;4881207;29;1915;-94
2022/08/01 18:19:41;;;;;;;;;;;;;;;20.52;65.44;100180.94;4881382;29;1297;-93
2022/08/01 18:22:08;;;;;;;;;;;;;;;20.53;65.23;100171.66;4883847;29;1713;-93
2022/08/01 18:24:34;;;;;;;;;;;;;;;20.53;65.29;100180.69;4890067;29;1635;-93
2022/08/01 18:27:01;;;;;;;;;;;;;;;20.53;65.11;100177.97;4886834;29;1476;-93
2022/08/01 18:29:27;;;;;;;;;;;;;;;20.54;65.23;100179.59;4886089;29;1774;-94
2022/08/01 18:31:54;;;;;;;;;;;;;;;20.55;65.32;100183.13;4880722;29;1722;-92
2022/08/01 18:34:21;;;;;;;;;;;;;;;20.56;65.25;100179.28;4879845;29;1439;-92
2022/08/01 18:36:47;;;;;;;;;;;;;;;20.56;65.38;100187.47;4873928;29;1978;-94
2022/08/01 18:39:14;;;;;;;;;;;;;;;20.56;65.20;100196.53;4879045;29;1542;-93
2022/08/01 18:41:40;;;;;;;;;;;;;;;20.56;65.47;100199.25;4876103;29;1847;-91
2022/08/01 18:44:07;;;;;;;;;;;;;;;20.57;65.38;100205.53;4869580;29;4438;-92
2022/08/01 18:46:33;;;;;;;;;;;;;;;20.57;65.49;100202.81;4875564;29;5080;-92
2022/08/01 18:49:00;;;;;;;;;;;;;;;20.57;65.15;100205.53;4879931;29;2516;-93
2022/08/01 18:51:27;;;;;;;;;;;;;;;20.57;65.43;100209.06;4875715;29;1812;-92
2022/08/01 18:53:55;;;;;;;;;;;;;;;20.57;65.33;100208.28;4880067;29;1165;-92
2022/08/01 18:56:21;;;;;;;;;;;;;;;20.58;65.55;100215.34;4878847;29;2356;-92
2022/08/01 18:58:48;;;;;;;;;;;;;;;20.58;65.39;100215.34;4869024;29;1741;-93
2022/08/01 19:01:14;;;;;;;;;;;;;;;20.58;65.51;100215.34;4867621;29;1225;-92
2022/08/01 19:03:41;;;;;;;;;;;;;;;20.57;65.54;100211.81;4875245;29;2268;-92
2022/08/01 19:06:08;;;;;;;;;;;;;;;20.57;65.20;100222.75;4877826;29;3692;-93
2022/08/01 19:08:35;;;;;;;;;;;;;;;20.58;65.37;100216.16;4870197;29;5376;-93
2022/08/01 19:11:01;;;;;;;;;;;;;;;20.57;65.60;100220.03;4879993;29;1370;-92
2022/08/01 19:13:28;;;;;;;;;;;;;;;20.58;65.61;100226.31;4879901;29;1933;-92
2022/08/01 19:15:54;;;;;;;;;;;;;;;20.57;65.53;100211.81;4880269;29;1331;-93
2022/08/01 19:18:22;;;;;;;;;;;;;;;20.58;65.63;100227.13;4873219;29;1994;-93
2022/08/01 19:20:48;;;;;;;;;;;;;;;20.58;65.68;100224.38;4889741;29;1241;-92
2022/08/01 19:25:59;;;;;;;;;;;;;;;20.57;65.69;100233.69;4877104;29;4857;-92
2022/08/01 19:28:25;;;;;;;;;;;;;;;20.58;65.61;100229.84;4874637;29;1376;-93
2022/08/01 19:30:52;;;;;;;;;;;;;;;20.57;65.72;100228.22;4867655;29;1408;-93
2022/08/01 19:33:18;;;;;;;;;;;;;;;20.57;65.67;100230.16;4872824;29;2052;-92
2022/08/01 19:35:45;;;;;;;;;;;;;;;20.57;65.40;100235.63;4875628;29;1765;-93
2022/08/01 19:38:11;;;;;;;;;;;;;;;20.57;65.58;100235.63;4868902;29;3213;-94
2022/08/01 19:40:37;;;;;;;;;;;;;;;20.57;65.63;100230.16;4877792;29;1966;-91
2022/08/01 19:43:04;;;;;;;;;;;;;;;20.56;65.49;100237.56;4879694;29;1695;-93
2022/08/01 19:45:30;;;;;;;;;;;;;;;20.56;65.53;100231.25;4880083;29;1289;-91
2022/08/01 19:47:56;;;;;;;;;;;;;;;20.55;65.67;100230.44;4871191;29;2784;-92
2022/08/01 19:50:23;;;;;;;;;;;;;;;20.55;65.62;100232.38;4882133;29;3854;-93
2022/08/01 19:52:49;;;;;;;;;;;;;;;20.55;65.81;100235.91;4873248;29;1279;-92
2022/08/01 19:55:16;;;;;;;;;;;;;;;20.55;65.68;100238.66;4892858;29;3878;-92
2022/08/01 19:57:42;;;;;;;;;;;;;;;20.55;65.36;100238.66;4879831;29;1914;-93
2022/08/01 20:00:08;;;;;;;;;;;;;;;20.55;65.43;100251.50;4878030;29;2150;-93
2022/08/01 20:02:35;;;;;;;;;;;;;;;20.54;65.64;100247.16;4877683;29;1387;-92
2022/08/01 20:05:01;;;;;;;;;;;;;;;20.54;65.51;100252.63;4882479;29;1516;-93
2022/08/01 20:07:28;;;;;;;;;;;;;;;20.54;65.34;100264.38;4882422;29;4072;-91
2022/08/01 20:09:54;;;;;;;;;;;;;;;20.54;65.66;100269.03;4865607;29;1638;-92
2022/08/01 20:12:21;;;;;;;;;;;;;;;20.53;65.57;100275.59;4889925;29;1291;-93
2022/08/01 20:14:50;;;;;;;;;;;;;;;20.53;65.60;100278.34;4898803;29;1281;-94
2022/08/01 20:17:16;;;;;;;;;;;;;;;20.53;65.46;100283.81;4875076;29;2341;-95
2022/08/01 20:19:43;;;;;;;;;;;;;;;20.53;65.41;100292.00;4869656;29;5004;-92
2022/08/01 20:22:09;;;;;;;;;;;;;;;20.52;65.74;100287.63;4875045;29;2704;-92
2022/08/01 20:24:36;;;;;;;;;;;;;;;20.51;65.56;100281.34;4880442;29;1306;-94
2022/08/01 20:27:02;;;;;;;;;;;;;;;20.50;65.50;100277.00;4876186;29;1954;-92
2022/08/01 20:29:28;;;;;;;;;;;;;;;20.51;65.39;100283.28;4886153;29;1884;-94
2022/08/01 20:31:55;;;;;;;;;;;;;;;20.50;65.27;100295.31;4879925;29;1837;-94
2022/08/01 20:34:21;;;;;;;;;;;;;;;20.49;65.61;100291.75;4887712;29;1975;-93
2022/08/01 20:36:49;;;;;;;;;;;;;;;20.51;65.37;100299.69;4881276;29;2205;-93
2022/08/01 20:39:16;;;;;;;;;;;;;;;20.49;65.55;100294.50;4887337;29;1433;-93
2022/08/01 20:41:42;;;;;;;;;;;;;;;20.49;65.49;100308.16;4875037;29;1773;-93
2022/08/01 20:44:09;;;;;;;;;;;;;;;20.49;65.39;100296.41;4872137;29;2297;-94
2022/08/01 20:46:35;;;;;;;;;;;;;;;20.48;65.62;100305.75;4870437;29;2244;-93
2022/08/01 20:49:01;;;;;;;;;;;;;;;20.46;65.32;100305.22;4872348;29;2159;-94
2022/08/01 20:51:28;;;;;;;;;;;;;;;20.48;65.59;100311.22;4883050;29;2686;-94
2022/08/01 20:53:54;;;;;;;;;;;;;;;20.47;65.36;100325.97;4879511;29;1847;-93
2022/08/01 20:56:21;;;;;;;;;;;;;;;20.46;65.31;100333.38;4873862;29;1516;-93
2022/08/01 20:58:47;;;;;;;;;;;;;;;20.46;65.54;100332.56;4876500;29;2428;-93
2022/08/01 21:01:13;;;;;;;;;;;;;;;20.45;65.50;100342.69;4868118;29;1776;-94
2022/08/01 21:03:40;;;;;;;;;;;;;;;20.45;65.50;100345.44;4868277;29;1584;-94
2022/08/01 21:06:07;;;;;;;;;;;;;;;20.44;65.52;100349.25;4875895;29;1609;-94
2022/08/01 21:08:33;;;;;;;;;;;;;;;20.43;65.52;100350.38;4874268;29;1643;-94
2022/08/01 21:11:00;;;;;;;;;;;;;;;20.42;65.38;100352.28;4879514;29;1452;-94
2022/08/01 21:13:26;;;;;;;;;;;;;;;20.42;65.41;100355.03;4869431;29;2144;-93
2022/08/01 21:15:53;;;;;;;;;;;;;;;20.41;65.58;100353.41;4882086;29;2188;-93
2022/08/01 21:18:19;;;;;;;;;;;;;;;20.41;65.68;100360.78;4880763;29;2130;-92
2022/08/01 21:20:45;;;;;;;;;;;;;;;20.40;65.62;100359.97;4877888;29;1689;-94
2022/08/01 21:23:12;;;;;;;;;;;;;;;20.39;65.21;100352.88;4875981;29;1821;-92
2022/08/01 21:25:38;;;;;;;;;;;;;;;20.38;65.33;100345.78;4871620;29;1761;-92
2022/08/01 21:28:05;;;;;;;;;;;;;;;20.38;65.33;100348.53;4870521;29;2069;-94
2022/08/01 21:30:31;;;;;;;;;;;;;;;20.39;65.60;100352.06;4875860;29;1733;-92
2022/08/01 21:32:58;;;;;;;;;;;;;;;20.38;65.24;100353.16;4876398;29;1397;-94
2022/08/01 21:35:24;;;;;;;;;;;;;;;20.37;65.47;100354.25;4882518;29;1709;-94
2022/08/01 21:37:51;;;;;;;;;;;;;;;20.37;65.37;100348.78;4872926;29;1912;-94
2022/08/01 21:40:17;;;;;;;;;;;;;;;20.36;65.27;100353.44;4867506;29;1877;-93
2022/08/01 21:42:43;;;;;;;;;;;;;;;20.35;65.38;100356.47;4877146;29;3126;-94
2022/08/01 21:45:10;;;;;;;;;;;;;;;20.34;65.16;100355.66;4870648;29;2295;-93
2022/08/01 21:47:36;;;;;;;;;;;;;;;20.33;65.57;100356.75;4867460;29;1676;-93
2022/08/01 21:50:03;;;;;;;;;;;;;;;20.34;65.57;100369.31;4867458;29;1615;-94
2022/08/01 21:52:29;;;;;;;;;;;;;;;20.31;65.29;100369.91;4876327;29;1776;-94
2022/08/01 21:54:56;;;;;;;;;;;;;;;20.31;65.35;100364.44;4879246;29;1732;-94
2022/08/01 21:57:22;;;;;;;;;;;;;;;20.31;65.31;100372.63;4871538;29;1967;-94
2022/08/01 21:59:49;;;;;;;;;;;;;;;20.30;65.29;100365.56;4865473;29;2184;-93
2022/08/01 22:02:16;;;;;;;;;;;;;;;20.30;65.25;100370.22;4868139;29;1805;-93
2022/08/01 22:04:43;;;;;;;;;;;;;;;20.30;65.47;100378.41;4865725;29;1552;-93
2022/08/01 22:07:10;;;;;;;;;;;;;;;20.30;65.37;100381.16;4866422;29;1777;-93
2022/08/01 22:09:36;;;;;;;;;;;;;;;20.28;65.29;100378.69;4869608;29;1578;-93
2022/08/01 22:12:02;;;;;;;;;;;;;;;20.27;65.14;100379.81;4881473;29;2260;-93
2022/08/01 22:14:29;;;;;;;;;;;;;;;20.27;65.36;100379.00;4873136;29;1600;-93
2022/08/01 22:16:55;;;;;;;;;;;;;;;20.25;65.17;100382.00;4866207;29;1980;-93
2022/08/01 22:19:22;;;;;;;;;;;;;;;20.26;65.06;100380.06;4865244;29;1586;-93
2022/08/01 22:21:48;;;;;;;;;;;;;;;20.25;65.42;100375.72;4863874;29;1864;-94
2022/08/01 22:24:14;;;;;;;;;;;;;;;20.24;65.49;100385.84;4872313;29;1705;-93
2022/08/01 22:26:41;;;;;;;;;;;;;;;20.23;65.25;100384.19;4865753;29;2255;-94
2022/08/01 22:29:07;;;;;;;;;;;;;;;20.23;65.14;100391.59;4876948;29;1583;-94
2022/08/01 22:31:34;;;;;;;;;;;;;;;20.22;65.36;100387.25;4876736;29;1527;-95
2022/08/01 22:34:00;;;;;;;;;;;;;;;20.20;65.43;100388.31;4872747;29;1920;-94
2022/08/01 22:36:27;;;;;;;;;;;;;;;20.20;65.30;100387.50;4886473;29;1775;-96
2022/08/01 22:38:53;;;;;;;;;;;;;;;20.19;65.17;100388.63;4880328;29;1910;-95
2022/08/01 22:41:20;;;;;;;;;;;;;;;20.18;65.23;100387.81;4880714;29;1518;-94
2022/08/01 22:43:46;;;;;;;;;;;;;;;20.18;65.33;100385.09;4877922;29;1643;-95
2022/08/01 22:46:13;;;;;;;;;;;;;;;20.16;65.47;100387.28;4874852;29;1812;-94
2022/08/01 22:48:39;;;;;;;;;;;;;;;20.17;65.34;100385.34;4877945;29;1782;-93
2022/08/01 22:51:06;;;;;;;;;;;;;;;20.15;65.05;100379.38;4863688;29;1253;-94
2022/08/01 22:53:32;;;;;;;;;;;;;;;20.14;65.30;100383.19;4871390;29;1866;-93
2022/08/01 22:55:58;;;;;;;;;;;;;;;20.13;65.13;100381.56;4872416;29;2213;-93
2022/08/01 22:58:25;;;;;;;;;;;;;;;20.12;65.46;100391.69;4883122;29;1911;-95
2022/08/01 23:00:51;;;;;;;;;;;;;;;20.11;65.21;100392.78;4885597;29;1171;-93
2022/08/01 23:03:18;;;;;;;;;;;;;;;20.11;64.93;100391.97;4867948;29;1376;-94
2022/08/01 23:05:46;;;;;;;;;;;;;;;20.10;64.91;100387.63;4877689;29;1265;-93
2022/08/01 23:08:13;;;;;;;;;;;;;;;20.09;64.97;100394.16;4888796;29;1172;-94
2022/08/01 23:10:39;;;;;;;;;;;;;;;20.08;65.21;100396.09;4886051;29;1452;-93
2022/08/01 23:13:05;;;;;;;;;;;;;;;20.07;65.02;100396.41;4887097;29;1216;-93
2022/08/01 23:15:32;;;;;;;;;;;;;;;20.07;65.00;100393.66;4883929;29;1339;-94
2022/08/01 23:17:58;;;;;;;;;;;;;;;20.06;64.95;100392.00;4881600;29;1911;-93
2022/08/01 23:20:25;;;;;;;;;;;;;;;20.04;64.87;100395.03;4882879;29;1456;-94
2022/08/01 23:22:51;;;;;;;;;;;;;;;20.04;64.96;100396.97;4882874;29;1481;-93
2022/08/01 23:25:18;;;;;;;;;;;;;;;20.02;65.26;100397.25;4873740;29;1247;-94
2022/08/01 23:27:45;;;;;;;;;;;;;;;20.00;64.85;100396.72;4875588;29;1661;-93
2022/08/01 23:30:12;;;;;;;;;;;;;;;20.01;65.00;100400.28;4871457;29;1478;-94
2022/08/01 23:32:38;;;;;;;;;;;;;;;19.99;65.19;100399.72;4887083;29;1603;-94
2022/08/01 23:35:04;;;;;;;;;;;;;;;19.99;64.95;100399.72;4887584;29;1512;-93
2022/08/01 23:37:31;;;;;;;;;;;;;;;19.98;64.85;100392.66;4884752;29;1907;-95
2022/08/01 23:39:57;;;;;;;;;;;;;;;19.96;64.77;100392.91;4879839;29;1196;-93
2022/08/01 23:42:24;;;;;;;;;;;;;;;19.94;65.18;100393.22;4887715;29;4235;-94
2022/08/01 23:44:51;;;;;;;;;;;;;;;19.94;64.96;100393.22;4886325;29;1357;-94
2022/08/01 23:47:18;;;;;;;;;;;;;;;19.92;65.02;100392.69;4883491;29;1164;-94
2022/08/01 23:49:44;;;;;;;;;;;;;;;19.92;64.63;100394.59;4887424;29;1313;-94
2022/08/01 23:52:11;;;;;;;;;;;;;;;19.91;64.90;100391.06;4885856;29;1174;-93
2022/08/01 23:54:37;;;;;;;;;;;;;;;19.90;64.68;100394.06;4899360;29;1511;-94
2022/08/01 23:57:04;;;;;;;;;;;;;;;19.89;64.68;100395.19;4886415;29;1358;-93
2022/08/01 23:59:30;;;;;;;;;;;;;;;19.87;64.55;100398.19;4883582;29;1910;-94
